sensor_id;sensor_type;location;lat;lon;timestamp;pressure;altitude;pressure_sealevel;temperature;humidity
18784;BME280;9520;50.954;6.968;2023-02-28T00:00:11;102327.50;;;9.29;34.65
18784;BME280;9520;50.954;6.968;2023-02-28T00:00:35;102340.78;;;9.35;34.53
18784;BME280;9520;50.954;6.968;2023-02-28T00:00:57;102335.47;;;9.32;34.55
18784;BME280;9520;50.954;6.968;2023-02-28T00:01:18;102335.50;;;9.35;34.51
18784;BME280;9520;50.954;6.968;2023-02-28T00:01:40;102331.13;;;9.36;34.60
18784;BME280;9520;50.954;6.968;2023-02-28T00:02:03;102324.88;;;9.29;34.61
18784;BME280;9520;50.954;6.968;2023-02-28T00:02:25;102330.25;;;9.35;34.48
18784;BME280;9520;50.954;6.968;2023-02-28T00:02:47;102333.75;;;9.36;34.77
18784;BME280;9520;50.954;6.968;2023-02-28T00:03:09;102321.34;;;9.27;34.68
18784;BME280;9520;50.954;6.968;2023-02-28T00:03:31;102332.81;;;9.31;34.74
18784;BME280;9520;50.954;6.968;2023-02-28T00:03:56;102341.59;;;9.31;34.82
18784;BME280;9520;50.954;6.968;2023-02-28T00:04:18;102344.25;;;9.34;34.77
18784;BME280;9520;50.954;6.968;2023-02-28T00:04:41;102339.84;;;9.33;34.78
18784;BME280;9520;50.954;6.968;2023-02-28T00:05:05;102338.09;;;9.34;34.65
18784;BME280;9520;50.954;6.968;2023-02-28T00:05:28;102341.59;;;9.33;34.86
18784;BME280;9520;50.954;6.968;2023-02-28T00:05:50;102344.25;;;9.34;34.94
18784;BME280;9520;50.954;6.968;2023-02-28T00:06:12;102342.53;;;9.35;34.87
18784;BME280;9520;50.954;6.968;2023-02-28T00:06:34;102338.19;;;9.37;35.03
18784;BME280;9520;50.954;6.968;2023-02-28T00:06:56;102335.53;;;9.38;34.93
18784;BME280;9520;50.954;6.968;2023-02-28T00:07:19;102339.03;;;9.37;34.85
18784;BME280;9520;50.954;6.968;2023-02-28T00:07:41;102345.19;;;9.36;34.82
18784;BME280;9520;50.954;6.968;2023-02-28T00:08:03;102339.03;;;9.37;34.80
18784;BME280;9520;50.954;6.968;2023-02-28T00:08:25;102331.13;;;9.37;35.03
18784;BME280;9520;50.954;6.968;2023-02-28T00:08:48;102340.88;;;9.41;34.83
18784;BME280;9520;50.954;6.968;2023-02-28T00:09:09;102332.88;;;9.35;34.78
18784;BME280;9520;50.954;6.968;2023-02-28T00:09:31;102336.50;;;9.42;34.87
18784;BME280;9520;50.954;6.968;2023-02-28T00:09:54;102332.91;;;9.37;34.75
18784;BME280;9520;50.954;6.968;2023-02-28T00:10:18;102338.25;;;9.43;34.86
18784;BME280;9520;50.954;6.968;2023-02-28T00:10:41;102342.66;;;9.44;34.85
18784;BME280;9520;50.954;6.968;2023-02-28T00:11:04;102337.38;;;9.42;34.90
18784;BME280;9520;50.954;6.968;2023-02-28T00:11:27;102338.25;;;9.43;34.94
18784;BME280;9520;50.954;6.968;2023-02-28T00:11:50;102342.63;;;9.42;35.13
18784;BME280;9520;50.954;6.968;2023-02-28T00:12:12;102337.38;;;9.42;34.75
18784;BME280;9520;50.954;6.968;2023-02-28T00:12:37;102307.22;;;9.22;34.86
18784;BME280;9520;50.954;6.968;2023-02-28T00:13:01;102334.59;;;9.32;35.16
18784;BME280;9520;50.954;6.968;2023-02-28T00:13:24;102337.22;;;9.32;34.99
18784;BME280;9520;50.954;6.968;2023-02-28T00:13:47;102339.81;;;9.30;35.08
18784;BME280;9520;50.954;6.968;2023-02-28T00:14:09;102339.81;;;9.30;35.17
18784;BME280;9520;50.954;6.968;2023-02-28T00:14:30;102337.13;;;9.27;35.27
18784;BME280;9520;50.954;6.968;2023-02-28T00:14:53;102339.81;;;9.30;35.24
18784;BME280;9520;50.954;6.968;2023-02-28T00:15:15;102331.75;;;9.21;35.06
18784;BME280;9520;50.954;6.968;2023-02-28T00:15:37;102337.13;;;9.27;35.17
18784;BME280;9520;50.954;6.968;2023-02-28T00:16:00;102338.97;;;9.31;35.19
18784;BME280;9520;50.954;6.968;2023-02-28T00:16:23;102343.38;;;9.32;35.19
18784;BME280;9520;50.954;6.968;2023-02-28T00:16:45;102338.97;;;9.31;35.38
18784;BME280;9520;50.954;6.968;2023-02-28T00:17:07;102340.75;;;9.32;35.45
18784;BME280;9520;50.954;6.968;2023-02-28T00:17:29;102338.97;;;9.33;35.34
18784;BME280;9520;50.954;6.968;2023-02-28T00:17:51;102336.28;;;9.30;35.18
18784;BME280;9520;50.954;6.968;2023-02-28T00:18:13;102338.81;;;9.24;35.37
18784;BME280;9520;50.954;6.968;2023-02-28T00:18:35;102350.19;;;9.23;35.27
18784;BME280;9520;50.954;6.968;2023-02-28T00:18:58;102332.69;;;9.25;35.14
18784;BME280;9520;50.954;6.968;2023-02-28T00:19:19;102334.41;;;9.23;35.14
18784;BME280;9520;50.954;6.968;2023-02-28T00:19:41;102332.66;;;9.23;35.16
18784;BME280;9520;50.954;6.968;2023-02-28T00:20:04;102325.50;;;9.15;35.30
18784;BME280;9520;50.954;6.968;2023-02-28T00:20:29;102335.28;;;9.22;35.25
18784;BME280;9520;50.954;6.968;2023-02-28T00:20:51;102338.72;;;9.19;35.34
18784;BME280;9520;50.954;6.968;2023-02-28T00:21:13;102338.84;;;9.25;35.39
18784;BME280;9520;50.954;6.968;2023-02-28T00:21:36;102336.22;;;9.25;35.38
18784;BME280;9520;50.954;6.968;2023-02-28T00:21:58;102337.09;;;9.26;35.13
18784;BME280;9520;50.954;6.968;2023-02-28T00:22:20;102331.75;;;9.21;35.26
18784;BME280;9520;50.954;6.968;2023-02-28T00:22:43;102338.84;;;9.25;35.35
18784;BME280;9520;50.954;6.968;2023-02-28T00:23:07;102325.56;;;9.19;35.30
18784;BME280;9520;50.954;6.968;2023-02-28T00:23:29;102330.94;;;9.25;35.13
18784;BME280;9520;50.954;6.968;2023-02-28T00:23:51;102320.34;;;9.21;35.01
18784;BME280;9520;50.954;6.968;2023-02-28T00:24:13;102332.84;;;9.32;35.27
18784;BME280;9520;50.954;6.968;2023-02-28T00:24:35;102333.69;;;9.31;35.20
18784;BME280;9520;50.954;6.968;2023-02-28T00:24:57;102333.72;;;9.34;35.04
18784;BME280;9520;50.954;6.968;2023-02-28T00:25:23;102330.19;;;9.32;34.91
18784;BME280;9520;50.954;6.968;2023-02-28T00:25:45;102317.78;;;9.25;34.86
18784;BME280;9520;50.954;6.968;2023-02-28T00:26:07;102324.88;;;9.29;34.87
18784;BME280;9520;50.954;6.968;2023-02-28T00:26:31;102330.09;;;9.28;34.87
18784;BME280;9520;50.954;6.968;2023-02-28T00:26:52;102333.63;;;9.28;34.98
18784;BME280;9520;50.954;6.968;2023-02-28T00:27:15;102328.38;;;9.30;34.96
18784;BME280;9520;50.954;6.968;2023-02-28T00:27:38;102335.34;;;9.26;35.17
18784;BME280;9520;50.954;6.968;2023-02-28T00:27:59;102331.84;;;9.26;34.90
18784;BME280;9520;50.954;6.968;2023-02-28T00:28:22;102337.13;;;9.27;34.78
18784;BME280;9520;50.954;6.968;2023-02-28T00:28:45;102338.88;;;9.27;34.85
18784;BME280;9520;50.954;6.968;2023-02-28T00:29:07;102333.59;;;9.25;34.81
18784;BME280;9520;50.954;6.968;2023-02-28T00:29:29;102335.41;;;9.29;34.83
18784;BME280;9520;50.954;6.968;2023-02-28T00:29:50;102334.50;;;9.29;35.01
18784;BME280;9520;50.954;6.968;2023-02-28T00:30:17;102338.91;;;9.30;35.02
18784;BME280;9520;50.954;6.968;2023-02-28T00:30:39;102338.03;;;9.29;34.83
18784;BME280;9520;50.954;6.968;2023-02-28T00:31:00;102321.28;;;9.24;34.87
18784;BME280;9520;50.954;6.968;2023-02-28T00:31:23;102332.78;;;9.29;35.04
18784;BME280;9520;50.954;6.968;2023-02-28T00:31:45;102328.34;;;9.28;35.29
18784;BME280;9520;50.954;6.968;2023-02-28T00:32:07;102315.97;;;9.21;35.20
18784;BME280;9520;50.954;6.968;2023-02-28T00:32:32;102338.00;;;9.26;35.21
18784;BME280;9520;50.954;6.968;2023-02-28T00:32:55;102329.19;;;9.26;35.19
18784;BME280;9520;50.954;6.968;2023-02-28T00:33:17;102326.50;;;9.23;35.08
18784;BME280;9520;50.954;6.968;2023-02-28T00:33:39;102337.13;;;9.29;35.08
18784;BME280;9520;50.954;6.968;2023-02-28T00:34:01;102332.78;;;9.29;35.12
18784;BME280;9520;50.954;6.968;2023-02-28T00:34:23;102334.50;;;9.27;34.96
18784;BME280;9520;50.954;6.968;2023-02-28T00:34:47;102336.25;;;9.28;35.11
18784;BME280;9520;50.954;6.968;2023-02-28T00:35:09;102334.53;;;9.30;35.09
18784;BME280;9520;50.954;6.968;2023-02-28T00:35:31;102334.53;;;9.30;35.12
18784;BME280;9520;50.954;6.968;2023-02-28T00:36:01;102323.91;;;9.24;34.99
18784;BME280;9520;50.954;6.968;2023-02-28T00:36:24;102333.63;;;9.28;34.80
18784;BME280;9520;50.954;6.968;2023-02-28T00:36:46;102323.94;;;9.26;34.80
18784;BME280;9520;50.954;6.968;2023-02-28T00:37:10;102336.25;;;9.28;34.91
18784;BME280;9520;50.954;6.968;2023-02-28T00:37:33;102338.91;;;9.30;34.87
18784;BME280;9520;50.954;6.968;2023-02-28T00:37:56;102329.13;;;9.21;35.05
18784;BME280;9520;50.954;6.968;2023-02-28T00:38:17;102345.81;;;9.23;35.14
18784;BME280;9520;50.954;6.968;2023-02-28T00:38:40;102342.34;;;9.24;35.21
18784;BME280;9520;50.954;6.968;2023-02-28T00:39:01;102339.50;;;9.14;35.12
18784;BME280;9520;50.954;6.968;2023-02-28T00:39:24;102341.19;;;9.08;35.19
18784;BME280;9520;50.954;6.968;2023-02-28T00:39:46;102336.88;;;9.12;35.36
18784;BME280;9520;50.954;6.968;2023-02-28T00:40:10;102339.59;;;9.17;35.30
18784;BME280;9520;50.954;6.968;2023-02-28T00:40:34;102336.03;;;9.15;35.21
18784;BME280;9520;50.954;6.968;2023-02-28T00:40:57;102338.69;;;9.16;35.33
18784;BME280;9520;50.954;6.968;2023-02-28T00:41:19;102337.00;;;9.20;35.04
18784;BME280;9520;50.954;6.968;2023-02-28T00:41:41;102338.72;;;9.19;35.15
18784;BME280;9520;50.954;6.968;2023-02-28T00:42:03;102343.97;;;9.16;34.92
18784;BME280;9520;50.954;6.968;2023-02-28T00:42:26;102347.31;;;9.09;35.09
18784;BME280;9520;50.954;6.968;2023-02-28T00:42:48;102337.56;;;9.03;35.15
18784;BME280;9520;50.954;6.968;2023-02-28T00:43:12;102336.72;;;9.04;35.16
18784;BME280;9520;50.954;6.968;2023-02-28T00:43:35;102336.66;;;9.00;35.40
18784;BME280;9520;50.954;6.968;2023-02-28T00:43:59;102338.34;;;8.98;35.41
18784;BME280;9520;50.954;6.968;2023-02-28T00:44:20;102340.97;;;8.98;35.43
18784;BME280;9520;50.954;6.968;2023-02-28T00:44:42;102333.06;;;8.96;35.59
18784;BME280;9520;50.954;6.968;2023-02-28T00:45:06;102338.25;;;8.92;35.60
18784;BME280;9520;50.954;6.968;2023-02-28T00:45:31;102319.75;;;8.87;35.50
18784;BME280;9520;50.954;6.968;2023-02-28T00:45:54;102337.50;;;8.97;35.73
18784;BME280;9520;50.954;6.968;2023-02-28T00:46:18;102343.59;;;8.98;35.67
18784;BME280;9520;50.954;6.968;2023-02-28T00:46:39;102330.41;;;8.95;35.73
18784;BME280;9520;50.954;6.968;2023-02-28T00:47:01;102333.09;;;8.98;35.50
18784;BME280;9520;50.954;6.968;2023-02-28T00:47:25;102342.88;;;9.05;35.39
18784;BME280;9520;50.954;6.968;2023-02-28T00:47:47;102321.59;;;8.91;35.35
18784;BME280;9520;50.954;6.968;2023-02-28T00:48:12;102336.75;;;9.06;35.47
18784;BME280;9520;50.954;6.968;2023-02-28T00:48:33;102338.53;;;9.08;35.21
18784;BME280;9520;50.954;6.968;2023-02-28T00:48:57;102330.66;;;9.08;35.10
18784;BME280;9520;50.954;6.968;2023-02-28T00:49:19;102315.56;;;8.97;35.13
18784;BME280;9520;50.954;6.968;2023-02-28T00:49:40;102336.06;;;9.16;35.00
18784;BME280;9520;50.954;6.968;2023-02-28T00:50:04;102335.06;;;9.09;35.14
18784;BME280;9520;50.954;6.968;2023-02-28T00:50:27;102329.78;;;9.09;35.26
18784;BME280;9520;50.954;6.968;2023-02-28T00:50:51;102333.31;;;9.10;35.01
18784;BME280;9520;50.954;6.968;2023-02-28T00:51:12;102308.53;;;8.99;35.08
18784;BME280;9520;50.954;6.968;2023-02-28T00:51:35;102337.69;;;9.09;35.33
18784;BME280;9520;50.954;6.968;2023-02-28T00:51:57;102335.94;;;9.10;35.21
18784;BME280;9520;50.954;6.968;2023-02-28T00:52:20;102334.25;;;9.12;35.19
18784;BME280;9520;50.954;6.968;2023-02-28T00:52:42;102342.91;;;9.06;35.31
18784;BME280;9520;50.954;6.968;2023-02-28T00:53:05;102342.91;;;9.06;35.18
18784;BME280;9520;50.954;6.968;2023-02-28T00:53:28;102330.59;;;9.05;35.24
18784;BME280;9520;50.954;6.968;2023-02-28T00:53:51;102343.72;;;9.04;35.32
18784;BME280;9520;50.954;6.968;2023-02-28T00:54:13;102338.19;;;8.87;35.39
18784;BME280;9520;50.954;6.968;2023-02-28T00:54:35;102341.78;;;8.92;35.62
18784;BME280;9520;50.954;6.968;2023-02-28T00:54:57;102329.59;;;8.97;35.49
18784;BME280;9520;50.954;6.968;2023-02-28T00:55:19;102335.75;;;8.99;35.41
18784;BME280;9520;50.954;6.968;2023-02-28T00:55:43;102335.78;;;9.01;35.33
18784;BME280;9520;50.954;6.968;2023-02-28T00:56:06;102333.03;;;8.95;35.50
18784;BME280;9520;50.954;6.968;2023-02-28T00:56:28;102337.41;;;8.94;35.67
18784;BME280;9520;50.954;6.968;2023-02-28T00:56:50;102333.00;;;8.92;35.56
18784;BME280;9520;50.954;6.968;2023-02-28T00:57:11;102322.34;;;8.86;35.52
18784;BME280;9520;50.954;6.968;2023-02-28T00:57:34;102330.41;;;8.95;35.37
18784;BME280;9520;50.954;6.968;2023-02-28T00:57:57;102320.66;;;8.88;35.43
18784;BME280;9520;50.954;6.968;2023-02-28T00:58:19;102327.91;;;9.01;35.41
18784;BME280;9520;50.954;6.968;2023-02-28T00:58:41;102333.84;;;8.91;35.43
18784;BME280;9520;50.954;6.968;2023-02-28T00:59:03;102328.59;;;8.91;35.60
18784;BME280;9520;50.954;6.968;2023-02-28T00:59:25;102334.66;;;8.87;35.53
18784;BME280;9520;50.954;6.968;2023-02-28T00:59:47;102331.19;;;8.89;35.67
18784;BME280;9520;50.954;6.968;2023-02-28T01:00:09;102331.22;;;8.91;35.60
18784;BME280;9520;50.954;6.968;2023-02-28T01:00:32;102326.75;;;8.87;35.85
18784;BME280;9520;50.954;6.968;2023-02-28T01:00:54;102333.00;;;8.92;35.82
18784;BME280;9520;50.954;6.968;2023-02-28T01:01:16;102339.16;;;8.92;35.65
18784;BME280;9520;50.954;6.968;2023-02-28T01:01:39;102328.66;;;8.95;35.48
18784;BME280;9520;50.954;6.968;2023-02-28T01:02:01;102341.78;;;8.94;35.45
18784;BME280;9520;50.954;6.968;2023-02-28T01:02:23;102330.25;;;8.86;35.60
18784;BME280;9520;50.954;6.968;2023-02-28T01:02:46;102340.97;;;8.98;35.73
18784;BME280;9520;50.954;6.968;2023-02-28T01:03:08;102334.84;;;8.97;35.69
18784;BME280;9520;50.954;6.968;2023-02-28T01:03:32;102339.22;;;8.98;35.60
18784;BME280;9520;50.954;6.968;2023-02-28T01:03:56;102337.53;;;9.00;35.47
18784;BME280;9520;50.954;6.968;2023-02-28T01:04:19;102340.19;;;9.02;35.41
18784;BME280;9520;50.954;6.968;2023-02-28T01:04:41;102340.19;;;9.02;35.46
18784;BME280;9520;50.954;6.968;2023-02-28T01:05:03;102333.94;;;8.95;35.42
18784;BME280;9520;50.954;6.968;2023-02-28T01:05:25;102332.16;;;8.94;35.30
18784;BME280;9520;50.954;6.968;2023-02-28T01:05:48;102333.00;;;8.92;35.58
18784;BME280;9520;50.954;6.968;2023-02-28T01:06:10;102340.97;;;8.96;35.41
18784;BME280;9520;50.954;6.968;2023-02-28T01:06:32;102335.72;;;8.96;35.39
18784;BME280;9520;50.954;6.968;2023-02-28T01:06:54;102334.84;;;8.97;35.48
18784;BME280;9520;50.954;6.968;2023-02-28T01:07:16;102338.34;;;8.98;35.45
18784;BME280;9520;50.954;6.968;2023-02-28T01:07:40;102335.72;;;8.98;35.61
18784;BME280;9520;50.954;6.968;2023-02-28T01:08:02;102336.56;;;8.95;35.43
18784;BME280;9520;50.954;6.968;2023-02-28T01:08:24;102338.34;;;8.96;35.57
18784;BME280;9520;50.954;6.968;2023-02-28T01:08:48;102340.97;;;8.98;35.40
18784;BME280;9520;50.954;6.968;2023-02-28T01:09:11;102337.50;;;8.99;35.61
18784;BME280;9520;50.954;6.968;2023-02-28T01:09:33;102334.00;;;9.00;35.52
18784;BME280;9520;50.954;6.968;2023-02-28T01:09:54;102333.16;;;9.01;35.39
18784;BME280;9520;50.954;6.968;2023-02-28T01:10:19;102337.56;;;9.02;35.71
18784;BME280;9520;50.954;6.968;2023-02-28T01:10:44;102338.31;;;8.95;35.54
18784;BME280;9520;50.954;6.968;2023-02-28T01:11:08;102320.66;;;8.88;35.64
18784;BME280;9520;50.954;6.968;2023-02-28T01:11:30;102334.00;;;9.00;35.62
18784;BME280;9520;50.954;6.968;2023-02-28T01:11:53;102337.56;;;9.03;35.81
18784;BME280;9520;50.954;6.968;2023-02-28T01:12:15;102330.53;;;9.01;35.56
18784;BME280;9520;50.954;6.968;2023-02-28T01:12:37;102333.28;;;9.08;35.71
18784;BME280;9520;50.954;6.968;2023-02-28T01:13:02;102338.50;;;9.05;35.39
18784;BME280;9520;50.954;6.968;2023-02-28T01:13:24;102339.38;;;9.06;35.59
18784;BME280;9520;50.954;6.968;2023-02-28T01:13:46;102340.19;;;9.02;35.48
18784;BME280;9520;50.954;6.968;2023-02-28T01:14:08;102334.94;;;9.02;35.36
18784;BME280;9520;50.954;6.968;2023-02-28T01:14:31;102335.72;;;8.98;35.63
18784;BME280;9520;50.954;6.968;2023-02-28T01:14:52;102344.56;;;9.01;35.53
18784;BME280;9520;50.954;6.968;2023-02-28T01:15:15;102342.88;;;9.05;35.34
18784;BME280;9520;50.954;6.968;2023-02-28T01:15:41;102334.09;;;9.04;35.62
18784;BME280;9520;50.954;6.968;2023-02-28T01:16:06;102334.94;;;9.02;35.52
18784;BME280;9520;50.954;6.968;2023-02-28T01:16:29;102333.97;;;8.98;35.66
18784;BME280;9520;50.954;6.968;2023-02-28T01:16:50;102335.81;;;9.02;35.48
18784;BME280;9520;50.954;6.968;2023-02-28T01:17:13;102334.94;;;9.02;35.48
18784;BME280;9520;50.954;6.968;2023-02-28T01:17:35;102334.94;;;9.03;35.46
18784;BME280;9520;50.954;6.968;2023-02-28T01:17:58;102311.91;;;8.90;35.58
18784;BME280;9520;50.954;6.968;2023-02-28T01:18:20;102338.53;;;9.07;35.65
18784;BME280;9520;50.954;6.968;2023-02-28T01:18:42;102341.22;;;9.10;35.31
18784;BME280;9520;50.954;6.968;2023-02-28T01:19:04;102337.66;;;9.08;35.36
18784;BME280;9520;50.954;6.968;2023-02-28T01:19:27;102329.69;;;9.02;35.66
18784;BME280;9520;50.954;6.968;2023-02-28T01:19:49;102334.94;;;9.02;35.70
18784;BME280;9520;50.954;6.968;2023-02-28T01:20:11;102332.31;;;9.03;35.58
18784;BME280;9520;50.954;6.968;2023-02-28T01:20:32;102335.78;;;9.01;35.52
18784;BME280;9520;50.954;6.968;2023-02-28T01:20:55;102340.13;;;8.99;35.41
18784;BME280;9520;50.954;6.968;2023-02-28T01:21:18;102333.16;;;9.01;35.41
18784;BME280;9520;50.954;6.968;2023-02-28T01:21:41;102335.81;;;9.02;35.64
18784;BME280;9520;50.954;6.968;2023-02-28T01:22:03;102334.06;;;9.01;35.62
18784;BME280;9520;50.954;6.968;2023-02-28T01:22:26;102338.47;;;9.04;35.56
18784;BME280;9520;50.954;6.968;2023-02-28T01:22:48;102333.19;;;9.04;35.52
18784;BME280;9520;50.954;6.968;2023-02-28T01:23:09;102340.28;;;9.06;35.48
18784;BME280;9520;50.954;6.968;2023-02-28T01:23:31;102335.03;;;9.06;35.49
18784;BME280;9520;50.954;6.968;2023-02-28T01:23:56;102336.81;;;9.09;35.47
18784;BME280;9520;50.954;6.968;2023-02-28T01:24:19;102339.44;;;9.09;35.35
18784;BME280;9520;50.954;6.968;2023-02-28T01:24:41;102335.03;;;9.08;35.36
18784;BME280;9520;50.954;6.968;2023-02-28T01:25:07;102324.34;;;8.99;35.59
18784;BME280;9520;50.954;6.968;2023-02-28T01:25:29;102334.97;;;9.05;35.57
18784;BME280;9520;50.954;6.968;2023-02-28T01:25:52;102331.47;;;9.04;35.56
18784;BME280;9520;50.954;6.968;2023-02-28T01:26:17;102339.34;;;9.04;35.56
18784;BME280;9520;50.954;6.968;2023-02-28T01:26:39;102337.56;;;9.03;35.63
18784;BME280;9520;50.954;6.968;2023-02-28T01:27:02;102336.72;;;9.04;35.52
18784;BME280;9520;50.954;6.968;2023-02-28T01:27:23;102342.06;;;9.09;35.56
18784;BME280;9520;50.954;6.968;2023-02-28T01:27:47;102336.81;;;9.09;35.20
18784;BME280;9520;50.954;6.968;2023-02-28T01:28:09;102342.88;;;9.05;35.41
18784;BME280;9520;50.954;6.968;2023-02-28T01:28:30;102335.78;;;9.01;35.55
18784;BME280;9520;50.954;6.968;2023-02-28T01:28:53;102339.38;;;9.06;35.25
18784;BME280;9520;50.954;6.968;2023-02-28T01:29:14;102322.63;;;9.01;35.42
18784;BME280;9520;50.954;6.968;2023-02-28T01:29:37;102344.78;;;9.12;35.29
18784;BME280;9520;50.954;6.968;2023-02-28T01:29:59;102343.00;;;9.11;35.44
18784;BME280;9520;50.954;6.968;2023-02-28T01:30:20;102333.31;;;9.10;35.35
18784;BME280;9520;50.954;6.968;2023-02-28T01:30:42;102334.16;;;9.07;35.34
18784;BME280;9520;50.954;6.968;2023-02-28T01:31:05;102337.63;;;9.05;35.44
18784;BME280;9520;50.954;6.968;2023-02-28T01:31:27;102339.38;;;9.06;35.52
18784;BME280;9520;50.954;6.968;2023-02-28T01:31:49;102338.53;;;9.07;35.46
18784;BME280;9520;50.954;6.968;2023-02-28T01:32:12;102336.81;;;9.07;35.29
18784;BME280;9520;50.954;6.968;2023-02-28T01:32:34;102331.50;;;9.06;35.37
18784;BME280;9520;50.954;6.968;2023-02-28T01:32:57;102336.81;;;9.09;35.24
18784;BME280;9520;50.954;6.968;2023-02-28T01:33:19;102338.50;;;9.05;35.31
18784;BME280;9520;50.954;6.968;2023-02-28T01:33:41;102334.13;;;9.06;35.24
18784;BME280;9520;50.954;6.968;2023-02-28T01:34:03;102344.72;;;9.10;35.24
18784;BME280;9520;50.954;6.968;2023-02-28T01:34:25;102338.59;;;9.10;35.31
18784;BME280;9520;50.954;6.968;2023-02-28T01:34:47;102337.69;;;9.09;35.30
18784;BME280;9520;50.954;6.968;2023-02-28T01:35:08;102328.91;;;9.09;35.35
18784;BME280;9520;50.954;6.968;2023-02-28T01:35:33;102337.75;;;9.13;35.47
18784;BME280;9520;50.954;6.968;2023-02-28T01:36:00;102333.41;;;9.15;35.42
18784;BME280;9520;50.954;6.968;2023-02-28T01:36:24;102320.06;;;9.05;35.53
18784;BME280;9520;50.954;6.968;2023-02-28T01:36:46;102335.97;;;9.12;35.25
18784;BME280;9520;50.954;6.968;2023-02-28T01:37:09;102332.44;;;9.09;35.66
18784;BME280;9520;50.954;6.968;2023-02-28T01:37:30;102334.94;;;9.02;35.34
18784;BME280;9520;50.954;6.968;2023-02-28T01:37:52;102338.47;;;9.04;35.47
18784;BME280;9520;50.954;6.968;2023-02-28T01:38:14;102339.44;;;9.07;35.27
18784;BME280;9520;50.954;6.968;2023-02-28T01:38:43;102334.22;;;9.10;35.47
18784;BME280;9520;50.954;6.968;2023-02-28T01:39:06;102328.06;;;9.10;35.48
18784;BME280;9520;50.954;6.968;2023-02-28T01:39:27;102335.94;;;9.10;35.32
18784;BME280;9520;50.954;6.968;2023-02-28T01:40:46;102338.47;;;9.04;35.60
18784;BME280;9520;50.954;6.968;2023-02-28T01:41:16;102330.53;;;9.01;35.48
18784;BME280;9520;50.954;6.968;2023-02-28T01:41:38;102311.03;;;8.90;35.43
18784;BME280;9520;50.954;6.968;2023-02-28T01:42:01;102310.13;;;8.88;35.46
18784;BME280;9520;50.954;6.968;2023-02-28T01:42:23;102339.34;;;9.04;35.36
18784;BME280;9520;50.954;6.968;2023-02-28T01:42:45;102321.72;;;8.99;35.23
18784;BME280;9520;50.954;6.968;2023-02-28T01:43:20;102333.16;;;9.01;35.57
18784;BME280;9520;50.954;6.968;2023-02-28T01:45:00;102334.09;;;9.04;35.42
18784;BME280;9520;50.954;6.968;2023-02-28T01:45:25;102328.81;;;9.04;35.46
18784;BME280;9520;50.954;6.968;2023-02-28T01:45:47;102335.78;;;9.01;35.39
18784;BME280;9520;50.954;6.968;2023-02-28T01:46:13;102335.78;;;9.01;35.36
18784;BME280;9520;50.954;6.968;2023-02-28T01:46:36;102330.56;;;9.02;35.47
18784;BME280;9520;50.954;6.968;2023-02-28T01:46:58;102331.41;;;9.01;35.56
18784;BME280;9520;50.954;6.968;2023-02-28T01:47:20;102335.72;;;8.98;35.44
18784;BME280;9520;50.954;6.968;2023-02-28T01:47:43;102325.16;;;8.95;35.57
18784;BME280;9520;50.954;6.968;2023-02-28T01:48:08;102286.16;;;8.73;35.67
18784;BME280;9520;50.954;6.968;2023-02-28T01:48:32;102331.31;;;8.95;35.66
18784;BME280;9520;50.954;6.968;2023-02-28T01:49:02;102332.19;;;8.96;35.50
18784;BME280;9520;50.954;6.968;2023-02-28T01:49:29;102326.06;;;8.97;35.15
18784;BME280;9520;50.954;6.968;2023-02-28T01:49:51;102328.66;;;8.95;35.44
18784;BME280;9520;50.954;6.968;2023-02-28T01:50:16;102327.78;;;8.95;35.55
18784;BME280;9520;50.954;6.968;2023-02-28T01:50:43;102309.19;;;8.86;35.36
18784;BME280;9520;50.954;6.968;2023-02-28T01:51:11;102330.38;;;8.93;35.39
18784;BME280;9520;50.954;6.968;2023-02-28T01:51:40;102324.19;;;8.90;35.33
18784;BME280;9520;50.954;6.968;2023-02-28T01:52:07;102317.09;;;8.86;35.51
18784;BME280;9520;50.954;6.968;2023-02-28T01:52:30;102332.03;;;8.88;35.54
18784;BME280;9520;50.954;6.968;2023-02-28T01:52:55;102323.38;;;8.92;35.68
18784;BME280;9520;50.954;6.968;2023-02-28T01:53:21;102317.06;;;8.83;35.57
18784;BME280;9520;50.954;6.968;2023-02-28T01:53:48;102324.94;;;8.83;35.61
18784;BME280;9520;50.954;6.968;2023-02-28T01:54:13;102317.06;;;8.83;35.47
18784;BME280;9520;50.954;6.968;2023-02-28T01:54:38;102320.56;;;8.85;35.49
18784;BME280;9520;50.954;6.968;2023-02-28T01:55:02;102329.34;;;8.85;35.65
18784;BME280;9520;50.954;6.968;2023-02-28T01:55:27;102315.22;;;8.80;35.54
18784;BME280;9520;50.954;6.968;2023-02-28T01:55:52;102323.00;;;8.73;35.72
18784;BME280;9520;50.954;6.968;2023-02-28T01:56:20;102323.75;;;8.68;35.83
18784;BME280;9520;50.954;6.968;2023-02-28T01:56:47;102282.09;;;8.43;35.73
18784;BME280;9520;50.954;6.968;2023-02-28T01:57:14;102310.56;;;8.65;35.94
18784;BME280;9520;50.954;6.968;2023-02-28T01:57:39;102321.22;;;8.72;35.93
18784;BME280;9520;50.954;6.968;2023-02-28T01:58:06;102323.88;;;8.75;35.72
18784;BME280;9520;50.954;6.968;2023-02-28T01:58:28;102323.84;;;8.72;35.95
18784;BME280;9520;50.954;6.968;2023-02-28T01:58:51;102323.88;;;8.75;35.62
18784;BME280;9520;50.954;6.968;2023-02-28T01:59:17;102325.63;;;8.73;35.84
18784;BME280;9520;50.954;6.968;2023-02-28T01:59:46;102328.25;;;8.73;35.82
18784;BME280;9520;50.954;6.968;2023-02-28T02:00:13;102314.09;;;8.66;35.83
18784;BME280;9520;50.954;6.968;2023-02-28T02:00:40;102327.28;;;8.68;35.71
18784;BME280;9520;50.954;6.968;2023-02-28T02:01:04;102315.03;;;8.70;35.71
18784;BME280;9520;50.954;6.968;2023-02-28T02:01:29;102312.34;;;8.66;35.58
18784;BME280;9520;50.954;6.968;2023-02-28T02:01:54;102311.28;;;8.58;35.56
18784;BME280;9520;50.954;6.968;2023-02-28T02:02:17;102317.59;;;8.66;35.70
18784;BME280;9520;50.954;6.968;2023-02-28T02:02:41;102315.78;;;8.62;35.92
18784;BME280;9520;50.954;6.968;2023-02-28T02:03:08;102323.63;;;8.61;36.01
18784;BME280;9520;50.954;6.968;2023-02-28T02:03:31;102315.78;;;8.62;36.08
18784;BME280;9520;50.954;6.968;2023-02-28T02:03:55;102314.03;;;8.63;35.85
18784;BME280;9520;50.954;6.968;2023-02-28T02:04:20;102314.91;;;8.63;35.96
18784;BME280;9520;50.954;6.968;2023-02-28T02:04:50;102316.72;;;8.66;35.81
18784;BME280;9520;50.954;6.968;2023-02-28T02:05:15;102315.56;;;8.52;35.99
18784;BME280;9520;50.954;6.968;2023-02-28T02:05:39;102318.28;;;8.56;36.04
18784;BME280;9520;50.954;6.968;2023-02-28T02:06:01;102315.72;;;8.59;36.02